createdAt,value
2023-04-20T00:01:13.660Z,100380.28
2023-04-20T00:03:43.318Z,100374.94
2023-04-20T00:06:14.211Z,100370.63
2023-04-20T00:08:46.750Z,100363.69
2023-04-20T00:11:16.304Z,100368.00
2023-04-20T00:13:46.118Z,100366.94
2023-04-20T00:16:15.664Z,100374.81
2023-04-20T00:18:45.241Z,100383.63
2023-04-20T00:21:15.220Z,100387.94
2023-04-20T00:23:47.318Z,100375.78
2023-04-20T00:26:17.168Z,100378.50
2023-04-20T00:28:47.385Z,100382.72
2023-04-20T00:31:16.997Z,100381.81
2023-04-20T00:33:46.600Z,100384.41
2023-04-20T00:36:16.150Z,100381.63
2023-04-20T00:38:48.261Z,100385.91
2023-04-20T00:41:17.816Z,100368.44
2023-04-20T00:43:54.438Z,100370.09
2023-04-20T00:46:25.010Z,100371.91
2023-04-20T00:48:56.429Z,100370.25
2023-04-20T00:51:26.706Z,100378.13
2023-04-20T00:53:59.435Z,100386.75
2023-04-20T00:56:29.005Z,100381.72
2023-04-20T00:58:58.952Z,100375.78
2023-04-20T01:01:29.285Z,100376.75
2023-04-20T01:03:59.107Z,100375.94
2023-04-20T01:06:28.792Z,100373.41
2023-04-20T01:09:00.949Z,100375.97
2023-04-20T01:11:30.551Z,100370.72
2023-04-20T01:14:00.155Z,100374.22
2023-04-20T01:16:30.030Z,100364.75
2023-04-20T01:18:59.777Z,100368.38
2023-04-20T01:21:29.533Z,100371.88
2023-04-20T01:24:01.735Z,100358.78
2023-04-20T01:26:31.322Z,100363.16
2023-04-20T01:29:00.899Z,100362.13
2023-04-20T01:31:30.470Z,100360.19
2023-04-20T01:34:00.090Z,100366.19
2023-04-20T01:36:29.896Z,100365.22
2023-04-20T01:39:02.339Z,100359.16
2023-04-20T01:41:31.929Z,100358.34
2023-04-20T01:44:01.524Z,100353.22
2023-04-20T01:46:31.140Z,100349.84
2023-04-20T01:49:00.904Z,100352.53
2023-04-20T01:51:30.643Z,100357.00
2023-04-20T01:54:02.949Z,100351.69
2023-04-20T01:56:32.460Z,100348.09
2023-04-20T01:59:01.996Z,100349.06
2023-04-20T02:01:31.559Z,100351.53
2023-04-20T02:04:01.171Z,100355.94
2023-04-20T02:06:31.434Z,100357.75
2023-04-20T02:09:03.739Z,100352.44
2023-04-20T02:11:33.275Z,100348.84
2023-04-20T02:14:03.767Z,100345.38
2023-04-20T02:16:33.395Z,100350.56
2023-04-20T02:19:03.113Z,100341.00
2023-04-20T02:21:32.654Z,100343.50
2023-04-20T02:24:04.871Z,100352.25
2023-04-20T02:26:34.421Z,100344.44
2023-04-20T02:29:03.949Z,100353.16
2023-04-20T02:31:33.901Z,100341.88
2023-04-20T02:34:06.259Z,100344.47
2023-04-20T02:36:35.856Z,100335.84
2023-04-20T02:39:07.949Z,100325.41
2023-04-20T02:41:37.494Z,100324.41
2023-04-20T02:44:07.182Z,100326.03
2023-04-20T02:46:36.728Z,100325.19
2023-04-20T02:49:06.434Z,100333.00
2023-04-20T02:51:35.956Z,100329.59
2023-04-20T02:54:08.503Z,100333.00
2023-04-20T02:56:38.041Z,100341.78
2023-04-20T02:59:07.645Z,100331.38
2023-04-20T03:01:37.569Z,100331.44
2023-04-20T03:04:07.810Z,100330.41
2023-04-20T03:06:38.778Z,100331.31
2023-04-20T03:09:11.150Z,100334.81
2023-04-20T03:11:40.676Z,100336.66
2023-04-20T03:14:10.280Z,100341.00
2023-04-20T03:16:39.934Z,100342.00
2023-04-20T03:19:09.575Z,100339.41
2023-04-20T03:21:39.116Z,100345.50
2023-04-20T03:24:11.518Z,100335.13
2023-04-20T03:26:41.420Z,100339.50
2023-04-20T03:29:11.007Z,100333.44
2023-04-20T03:31:40.568Z,100334.28
2023-04-20T03:34:10.157Z,100335.22
2023-04-20T03:36:40.861Z,100336.06
2023-04-20T03:39:13.306Z,100342.00
2023-04-20T03:41:43.079Z,100337.66
2023-04-20T03:44:12.630Z,100343.84
2023-04-20T03:46:42.531Z,100340.38
2023-04-20T03:49:12.063Z,100343.03
2023-04-20T03:51:41.588Z,100346.50
2023-04-20T03:54:13.693Z,100350.00
2023-04-20T03:56:44.765Z,100349.16
2023-04-20T03:59:14.474Z,100359.66
2023-04-20T04:01:44.503Z,100362.28
2023-04-20T04:04:14.778Z,100353.69
2023-04-20T04:06:45.000Z,100352.91
2023-04-20T04:09:17.863Z,100350.31
2023-04-20T04:11:48.887Z,100351.13
2023-04-20T04:14:18.653Z,100359.13
2023-04-20T04:16:48.675Z,100366.25
2023-04-20T04:19:19.007Z,100356.84
2023-04-20T04:21:49.201Z,100360.50
2023-04-20T04:24:21.882Z,100360.72
2023-04-20T04:26:52.051Z,100360.75
2023-04-20T04:29:22.429Z,100363.50
2023-04-20T04:31:52.543Z,100369.69
2023-04-20T04:34:24.298Z,100366.31
2023-04-20T04:36:54.365Z,100362.06
2023-04-20T04:39:26.926Z,100364.78
2023-04-20T04:41:57.992Z,100362.22
2023-04-20T04:44:29.221Z,100362.66
2023-04-20T04:46:58.994Z,100369.72
2023-04-20T04:49:30.191Z,100363.97
2023-04-20T04:52:00.122Z,100371.25
2023-04-20T04:54:32.466Z,100372.28
2023-04-20T04:57:02.448Z,100370.75
2023-04-20T04:59:32.140Z,100373.53
2023-04-20T05:02:02.200Z,100375.22
2023-04-20T05:04:31.980Z,100371.88
2023-04-20T05:07:01.783Z,100371.00
2023-04-20T05:09:34.081Z,100368.56
2023-04-20T05:12:04.155Z,100379.97
2023-04-20T05:14:34.138Z,100374.81
2023-04-20T05:17:04.275Z,100379.19
2023-04-20T05:19:33.794Z,100379.28
2023-04-20T05:22:03.326Z,100376.84
2023-04-20T05:24:35.834Z,100376.22
2023-04-20T05:27:05.747Z,100387.56
2023-04-20T05:29:35.339Z,100391.94
2023-04-20T05:32:05.046Z,100397.25
2023-04-20T05:34:34.681Z,100384.94
2023-04-20T05:37:06.822Z,100391.88
2023-04-20T05:39:38.916Z,100397.53
2023-04-20T05:42:08.620Z,100397.69
2023-04-20T05:44:39.602Z,100397.72
2023-04-20T05:47:09.113Z,100398.91
2023-04-20T05:49:38.811Z,100402.41
2023-04-20T05:52:08.376Z,100398.00
2023-04-20T05:54:40.581Z,100395.28
2023-04-20T05:57:10.101Z,100393.13
2023-04-20T05:59:39.633Z,100396.44
2023-04-20T06:02:09.501Z,100398.94
2023-04-20T06:04:39.767Z,100402.72
2023-04-20T06:07:09.752Z,100400.00
2023-04-20T06:09:42.070Z,100406.94
2023-04-20T06:12:11.731Z,100406.06
2023-04-20T06:14:41.270Z,100405.44
2023-04-20T06:17:10.800Z,100412.63
2023-04-20T06:19:40.980Z,100420.75
2023-04-20T06:22:11.198Z,100416.53
2023-04-20T06:24:43.832Z,100418.22
2023-04-20T06:27:14.013Z,100419.03
2023-04-20T06:29:43.566Z,100421.75
2023-04-20T06:32:13.152Z,100414.19
2023-04-20T06:34:42.706Z,100421.53
2023-04-20T06:37:12.349Z,100427.75
2023-04-20T06:39:44.469Z,100428.00
2023-04-20T06:42:14.045Z,100427.66
2023-04-20T06:44:43.579Z,100427.91
2023-04-20T06:47:13.110Z,100436.91
2023-04-20T06:49:43.613Z,100435.50
2023-04-20T06:52:13.214Z,100429.84
2023-04-20T06:54:45.449Z,100431.22
2023-04-20T06:57:14.953Z,100442.47
2023-04-20T06:59:44.529Z,100430.31
2023-04-20T07:02:14.260Z,100435.97
2023-04-20T07:04:43.953Z,100434.47
2023-04-20T07:07:13.683Z,100435.09
2023-04-20T07:09:45.844Z,100435.03
2023-04-20T07:12:15.964Z,100435.66
2023-04-20T07:14:45.521Z,100435.81
2023-04-20T07:17:15.060Z,100439.78
2023-04-20T07:19:44.601Z,100442.25
2023-04-20T07:22:14.073Z,100443.25
2023-04-20T07:24:46.180Z,100448.16
2023-04-20T07:27:15.889Z,100446.56
2023-04-20T07:29:45.478Z,100449.75
2023-04-20T07:32:15.263Z,100454.50
2023-04-20T07:34:44.886Z,100445.84
2023-04-20T07:37:14.695Z,100454.44
2023-04-20T07:39:46.774Z,100449.34
2023-04-20T07:42:16.275Z,100453.00
2023-04-20T07:44:45.817Z,100457.19
2023-04-20T07:47:15.322Z,100455.53
2023-04-20T07:49:45.959Z,100451.50
2023-04-20T07:52:17.193Z,100453.25
2023-04-20T07:54:50.118Z,100461.94
2023-04-20T07:57:19.632Z,100467.81
2023-04-20T07:59:49.585Z,100462.59
2023-04-20T08:02:19.575Z,100469.50
2023-04-20T08:04:50.068Z,100466.53
2023-04-20T08:07:19.838Z,100462.69
2023-04-20T08:09:51.931Z,100466.84
2023-04-20T08:12:21.479Z,100467.13
2023-04-20T08:14:51.893Z,100459.97
2023-04-20T08:17:21.635Z,100463.63
2023-04-20T08:19:51.872Z,100466.25
2023-04-20T08:22:21.434Z,100450.28
2023-04-20T08:24:53.565Z,100457.31
2023-04-20T08:27:23.068Z,100456.69
2023-04-20T08:29:52.600Z,100454.34
2023-04-20T08:32:23.946Z,100453.72
2023-04-20T08:34:53.552Z,100459.13
2023-04-20T08:37:23.418Z,100452.03
2023-04-20T08:39:55.854Z,100458.28
2023-04-20T08:42:25.654Z,100460.09
2023-04-20T08:44:55.927Z,100460.03
2023-04-20T08:47:26.124Z,100457.34
2023-04-20T08:49:56.955Z,100464.41
2023-04-20T08:52:26.494Z,100458.28
2023-04-20T08:54:58.546Z,100461.78
2023-04-20T08:57:28.655Z,100455.31
2023-04-20T09:00:00.100Z,100463.63
2023-04-20T09:02:29.755Z,100457.50
2023-04-20T09:05:07.069Z,100455.09
2023-04-20T09:07:38.043Z,100459.28
2023-04-20T09:10:10.847Z,100463.00
2023-04-20T09:12:44.469Z,100453.28
2023-04-20T09:15:14.316Z,100462.19
2023-04-20T09:17:43.864Z,100456.91
2023-04-20T09:20:14.252Z,100463.03
2023-04-20T09:22:43.952Z,100464.81
2023-04-20T09:25:21.359Z,100470.97
2023-04-20T09:27:58.688Z,100465.63
2023-04-20T09:30:28.648Z,100468.13
2023-04-20T09:33:05.277Z,100470.97
2023-04-20T09:35:35.023Z,100471.28
2023-04-20T09:38:04.591Z,100469.75
2023-04-20T09:40:37.835Z,100468.69
2023-04-20T09:43:15.394Z,100471.50
2023-04-20T09:45:45.965Z,100467.81
2023-04-20T09:48:19.631Z,100475.75
2023-04-20T09:50:51.061Z,100473.50
2023-04-20T09:53:22.133Z,100470.72
2023-04-20T09:55:54.318Z,100465.41
2023-04-20T09:58:24.123Z,100470.94
2023-04-20T10:00:53.766Z,100467.66
2023-04-20T10:03:23.972Z,100457.91
2023-04-20T10:05:55.799Z,100467.06
2023-04-20T10:08:25.421Z,100458.97
2023-04-20T10:10:57.695Z,100457.34
2023-04-20T10:13:36.273Z,100450.06
2023-04-20T10:16:06.174Z,100452.66
2023-04-20T10:18:36.084Z,100454.47
2023-04-20T10:21:11.021Z,100452.28
2023-04-20T10:23:50.987Z,100454.25
2023-04-20T10:26:23.384Z,100461.88
2023-04-20T10:28:53.074Z,100442.91
2023-04-20T10:31:22.803Z,100443.56
2023-04-20T10:33:57.107Z,100453.25
2023-04-20T10:36:29.544Z,100447.03
2023-04-20T10:39:00.619Z,100449.19
2023-04-20T10:41:32.765Z,100443.88
2023-04-20T10:44:10.674Z,100437.34
2023-04-20T10:46:40.339Z,100445.28
2023-04-20T10:49:10.113Z,100442.13
2023-04-20T10:51:39.667Z,100437.50
2023-04-20T10:54:11.609Z,100431.09
2023-04-20T10:56:54.035Z,100426.94
2023-04-20T10:59:26.432Z,100421.28
2023-04-20T11:01:56.548Z,100414.28
2023-04-20T11:04:34.135Z,100421.91
2023-04-20T11:07:09.005Z,100414.47
2023-04-20T11:09:39.478Z,100415.91
2023-04-20T11:12:14.893Z,100417.97
2023-04-20T11:14:54.689Z,100413.19
2023-04-20T11:17:33.660Z,100411.94
2023-04-20T11:20:12.379Z,100402.38
2023-04-20T11:22:42.548Z,100413.72
2023-04-20T11:25:14.221Z,100405.63
2023-04-20T11:27:46.575Z,100408.22
2023-04-20T11:30:16.475Z,100396.06
2023-04-20T11:32:46.135Z,100399.09
2023-04-20T11:35:16.322Z,100397.50
2023-04-20T11:37:51.594Z,100396.81
2023-04-20T11:40:21.480Z,100390.66
2023-04-20T11:42:53.651Z,100394.84
2023-04-20T11:45:23.530Z,100390.03
2023-04-20T11:47:53.436Z,100387.28
2023-04-20T11:50:23.920Z,100384.00
2023-04-20T11:52:53.463Z,100375.97
2023-04-20T11:55:23.093Z,100386.03
2023-04-20T11:57:55.224Z,100373.03
2023-04-20T12:00:26.082Z,100379.88
2023-04-20T12:02:55.787Z,100375.75
2023-04-20T12:05:25.644Z,100372.19
2023-04-20T12:07:55.276Z,100374.19
2023-04-20T12:10:25.129Z,100367.16
2023-04-20T12:12:57.565Z,100369.69
2023-04-20T12:15:27.089Z,100365.09
2023-04-20T12:17:56.656Z,100352.78
2023-04-20T12:20:26.408Z,100359.28
2023-04-20T12:22:57.187Z,100351.81
2023-04-20T12:25:28.605Z,100353.97
2023-04-20T12:28:02.460Z,100345.84
2023-04-20T12:30:34.760Z,100338.81
2023-04-20T12:33:05.932Z,100345.63
2023-04-20T12:35:35.492Z,100342.81
2023-04-20T12:38:05.045Z,100348.97
2023-04-20T12:40:34.634Z,100333.59
2023-04-20T12:43:06.851Z,100337.78
2023-04-20T12:45:36.709Z,100327.94
2023-04-20T12:48:06.861Z,100330.88
2023-04-20T12:50:36.451Z,100326.09
2023-04-20T12:53:06.135Z,100333.91
2023-04-20T12:55:35.722Z,100352.13
2023-04-20T12:58:07.959Z,100336.94
2023-04-20T13:00:37.614Z,100330.72
2023-04-20T13:03:07.472Z,100327.38
2023-04-20T13:05:37.184Z,100325.13
2023-04-20T13:08:06.810Z,100328.59
2023-04-20T13:10:36.391Z,100316.38
2023-04-20T13:13:08.773Z,100326.81
2023-04-20T13:15:39.364Z,100323.69
2023-04-20T13:18:10.041Z,100322.75
2023-04-20T13:20:39.886Z,100318.09
2023-04-20T13:23:09.464Z,100321.47
2023-04-20T13:25:39.106Z,100322.66
2023-04-20T13:28:14.474Z,100308.56
2023-04-20T13:30:44.569Z,100310.50
2023-04-20T13:33:14.202Z,100307.63
2023-04-20T13:35:43.809Z,100306.34
2023-04-20T13:38:13.395Z,100312.81
2023-04-20T13:40:44.328Z,100316.75
2023-04-20T13:43:18.360Z,100303.72
2023-04-20T13:45:49.004Z,100309.97
2023-04-20T13:48:18.587Z,100321.69
2023-04-20T13:50:48.116Z,100308.91
2023-04-20T13:53:17.681Z,100309.06
2023-04-20T13:55:47.219Z,100316.59
2023-04-20T13:58:19.426Z,100311.97
2023-04-20T14:00:49.144Z,100310.84
2023-04-20T14:03:20.366Z,100324.75
2023-04-20T14:05:51.690Z,100313.72
2023-04-20T14:08:23.479Z,100307.56
2023-04-20T14:10:52.984Z,100321.63
2023-04-20T14:13:26.008Z,100313.63
2023-04-20T14:15:56.619Z,100304.63
2023-04-20T14:18:26.397Z,100307.91
2023-04-20T14:20:55.941Z,100310.34
2023-04-20T14:23:25.503Z,100317.28
2023-04-20T14:25:55.376Z,100301.53
2023-04-20T14:28:27.776Z,100303.22
2023-04-20T14:30:57.326Z,100305.72
2023-04-20T14:33:27.013Z,100312.19
2023-04-20T14:35:56.600Z,100298.09
2023-04-20T14:38:26.481Z,100307.28
2023-04-20T14:40:56.076Z,100295.91
2023-04-20T14:43:28.211Z,100302.28
2023-04-20T14:45:58.999Z,100299.72
2023-04-20T14:48:28.764Z,100291.59
2023-04-20T14:50:58.310Z,100295.13
2023-04-20T14:53:27.890Z,100290.13
2023-04-20T14:55:57.970Z,100297.44
2023-04-20T14:58:30.079Z,100308.09
2023-04-20T15:00:59.648Z,100319.38
2023-04-20T15:03:29.578Z,100291.69
2023-04-20T15:06:02.539Z,100293.22
2023-04-20T15:08:32.319Z,100290.44
2023-04-20T15:11:02.236Z,100291.78
2023-04-20T15:13:34.716Z,100309.72
2023-04-20T15:16:04.295Z,100287.25
2023-04-20T15:18:33.846Z,100303.06
2023-04-20T15:21:03.595Z,100306.56
2023-04-20T15:23:33.150Z,100294.94
2023-04-20T15:26:02.863Z,100293.13
2023-04-20T15:28:35.301Z,100293.97
2023-04-20T15:31:04.862Z,100286.84
2023-04-20T15:33:34.412Z,100296.75
2023-04-20T15:36:03.996Z,100300.06
2023-04-20T15:38:33.496Z,100299.56
2023-04-20T15:41:03.051Z,100297.66
2023-04-20T15:43:35.162Z,100296.78
2023-04-20T15:46:04.739Z,100287.25
2023-04-20T15:48:34.326Z,100298.19
2023-04-20T15:51:04.133Z,100297.97
2023-04-20T15:53:34.499Z,100296.91
2023-04-20T15:56:04.064Z,100301.78
2023-04-20T15:58:36.407Z,100299.00
2023-04-20T16:01:06.007Z,100305.94
2023-04-20T16:03:35.797Z,100314.22
2023-04-20T16:06:06.245Z,100306.56
2023-04-20T16:08:35.884Z,100288.66
2023-04-20T16:11:05.422Z,100292.13
2023-04-20T16:13:38.011Z,100298.44
2023-04-20T16:16:08.063Z,100295.09
2023-04-20T16:18:37.682Z,100286.13
2023-04-20T16:21:07.296Z,100297.84
2023-04-20T16:23:36.995Z,100301.22
2023-04-20T16:26:06.619Z,100304.78
2023-04-20T16:28:38.749Z,100302.03
2023-04-20T16:31:08.532Z,100303.88
2023-04-20T16:33:39.103Z,100293.25
2023-04-20T16:36:09.089Z,100296.81
2023-04-20T16:38:38.614Z,100304.84
2023-04-20T16:41:08.339Z,100303.28
2023-04-20T16:43:41.158Z,100300.69
2023-04-20T16:46:16.473Z,100306.84
2023-04-20T16:48:46.096Z,100298.03
2023-04-20T16:51:15.632Z,100295.44
2023-04-20T16:53:45.602Z,100299.88
2023-04-20T16:56:15.310Z,100303.44
2023-04-20T16:58:47.399Z,100304.41
2023-04-20T17:01:17.128Z,100303.56
2023-04-20T17:03:47.960Z,100301.81
2023-04-20T17:06:17.649Z,100290.44
2023-04-20T17:08:47.422Z,100294.06
2023-04-20T17:11:19.232Z,100296.78
2023-04-20T17:13:51.390Z,100298.63
2023-04-20T17:16:21.095Z,100294.31
2023-04-20T17:18:52.142Z,100296.25
2023-04-20T17:21:21.769Z,100300.81
2023-04-20T17:23:51.324Z,100299.16
2023-04-20T17:26:20.943Z,100298.41
2023-04-20T17:28:53.774Z,100306.44
2023-04-20T17:31:23.403Z,100303.88
2023-04-20T17:33:52.930Z,100303.13
2023-04-20T17:36:22.490Z,100310.25
2023-04-20T17:38:52.020Z,100303.25
2023-04-20T17:41:21.603Z,100304.22
2023-04-20T17:43:54.507Z,100306.09
2023-04-20T17:46:24.113Z,100305.28
2023-04-20T17:48:53.700Z,100304.53
2023-04-20T17:51:23.283Z,100297.59
2023-04-20T17:53:52.784Z,100303.81
2023-04-20T17:56:22.312Z,100303.91
2023-04-20T17:58:55.400Z,100309.22
2023-04-20T18:01:24.941Z,100304.03
2023-04-20T18:03:54.615Z,100299.69
2023-04-20T18:06:24.340Z,100300.63
2023-04-20T18:08:55.019Z,100298.00
2023-04-20T18:11:24.586Z,100301.56
2023-04-20T18:13:56.716Z,100306.00
2023-04-20T18:16:26.338Z,100298.13
2023-04-20T18:18:55.916Z,100308.72
2023-04-20T18:21:25.561Z,100310.50
2023-04-20T18:23:55.636Z,100309.69
2023-04-20T18:26:25.633Z,100312.34
2023-04-20T18:28:57.761Z,100311.50
2023-04-20T18:31:28.070Z,100319.44
2023-04-20T18:33:57.735Z,100319.47
2023-04-20T18:36:27.355Z,100315.13
2023-04-20T18:38:57.500Z,100317.81
2023-04-20T18:41:27.915Z,100317.81
2023-04-20T18:44:01.431Z,100320.50
2023-04-20T18:46:31.045Z,100324.06
2023-04-20T18:49:00.768Z,100327.59
2023-04-20T18:51:32.166Z,100326.75
2023-04-20T18:54:01.762Z,100321.50
2023-04-20T18:56:31.304Z,100325.88
2023-04-20T18:59:04.360Z,100324.13
2023-04-20T19:01:35.395Z,100324.13
2023-04-20T19:04:05.277Z,100325.91
2023-04-20T19:06:34.932Z,100321.53
2023-04-20T19:09:06.524Z,100315.38
2023-04-20T19:11:37.514Z,100321.53
2023-04-20T19:14:10.262Z,100318.91
2023-04-20T19:16:40.359Z,100318.00
2023-04-20T19:19:09.953Z,100322.38
2023-04-20T19:21:39.506Z,100325.03
2023-04-20T19:24:09.622Z,100324.13
2023-04-20T19:26:39.634Z,100318.00
2023-04-20T19:29:12.597Z,100318.84
2023-04-20T19:31:42.380Z,100318.84
2023-04-20T19:34:13.645Z,100313.53
2023-04-20T19:36:43.731Z,100321.44
2023-04-20T19:39:13.333Z,100317.03
2023-04-20T19:41:42.959Z,100324.06
2023-04-20T19:44:15.143Z,100327.56
2023-04-20T19:46:44.839Z,100320.56
2023-04-20T19:49:14.408Z,100327.56
2023-04-20T19:51:44.087Z,100324.91
2023-04-20T19:54:16.850Z,100323.16
2023-04-20T19:56:46.524Z,100324.00
2023-04-20T19:59:18.954Z,100322.28
2023-04-20T20:01:50.677Z,100315.22
2023-04-20T20:04:20.626Z,100318.72
2023-04-20T20:06:50.969Z,100315.22
2023-04-20T20:09:23.131Z,100324.84
2023-04-20T20:11:53.977Z,100319.53
2023-04-20T20:14:26.154Z,100327.44
2023-04-20T20:16:56.806Z,100325.63
2023-04-20T20:19:27.417Z,100323.88
2023-04-20T20:21:56.986Z,100323.94
2023-04-20T20:24:26.532Z,100315.22
2023-04-20T20:26:56.150Z,100330.13
2023-04-20T20:29:28.264Z,100325.72
2023-04-20T20:31:57.868Z,100309.91
2023-04-20T20:34:27.828Z,100322.16
2023-04-20T20:36:57.376Z,100324.78
2023-04-20T20:39:26.964Z,100320.38
2023-04-20T20:41:57.306Z,100323.00
2023-04-20T20:44:33.045Z,100320.38
2023-04-20T20:47:02.718Z,100320.44
2023-04-20T20:49:32.289Z,100321.25
2023-04-20T20:52:02.261Z,100329.97
2023-04-20T20:54:31.827Z,100319.44
2023-04-20T20:57:01.870Z,100328.16
2023-04-20T20:59:34.027Z,100328.09
2023-04-20T21:02:03.816Z,100325.44
2023-04-20T21:04:33.504Z,100326.31
2023-04-20T21:07:03.125Z,100321.94
2023-04-20T21:09:33.203Z,100322.78
2023-04-20T21:12:02.950Z,100328.84
2023-04-20T21:14:35.216Z,100322.72
2023-04-20T21:17:04.997Z,100334.09
2023-04-20T21:19:35.151Z,100328.78
2023-04-20T21:22:04.759Z,100332.31
2023-04-20T21:24:34.365Z,100330.53
2023-04-20T21:27:03.997Z,100332.31
2023-04-20T21:29:36.159Z,100323.56
2023-04-20T21:32:06.040Z,100320.09
2023-04-20T21:34:35.698Z,100333.97
2023-04-20T21:37:06.330Z,100322.56
2023-04-20T21:39:35.991Z,100321.59
2023-04-20T21:42:05.865Z,100316.31
2023-04-20T21:44:38.205Z,100326.81
2023-04-20T21:47:07.911Z,100321.50
2023-04-20T21:49:37.515Z,100330.34
2023-04-20T21:52:07.206Z,100318.88
2023-04-20T21:54:36.784Z,100320.63
2023-04-20T21:57:06.573Z,100317.97
2023-04-20T21:59:38.788Z,100317.94
2023-04-20T22:02:08.464Z,100324.91
2023-04-20T22:04:38.203Z,100322.34
2023-04-20T22:07:08.278Z,100325.88
2023-04-20T22:09:37.844Z,100316.25
2023-04-20T22:12:09.224Z,100314.59
2023-04-20T22:14:42.007Z,100323.31
2023-04-20T22:17:11.998Z,100318.00
2023-04-20T22:19:42.365Z,100314.38
2023-04-20T22:22:12.334Z,100312.53
2023-04-20T22:24:42.144Z,100316.03
2023-04-20T22:27:11.744Z,100310.72
2023-04-20T22:29:43.888Z,100309.81
2023-04-20T22:32:13.473Z,100312.44
2023-04-20T22:34:43.198Z,100311.53
2023-04-20T22:37:12.745Z,100307.06
2023-04-20T22:39:42.341Z,100308.75
2023-04-20T22:42:12.017Z,100313.03
2023-04-20T22:44:44.180Z,100311.41
2023-04-20T22:47:13.907Z,100310.50
2023-04-20T22:49:43.497Z,100312.13
2023-04-20T22:52:13.013Z,100311.22
2023-04-20T22:54:48.165Z,100307.75
2023-04-20T22:57:18.582Z,100307.69
2023-04-20T22:59:51.741Z,100306.78
2023-04-20T23:02:21.322Z,100299.72
2023-04-20T23:04:51.680Z,100300.56
2023-04-20T23:07:21.635Z,100307.63
2023-04-20T23:09:51.236Z,100301.38
2023-04-20T23:12:20.990Z,100298.91
2023-04-20T23:14:54.908Z,100293.50
2023-04-20T23:17:24.492Z,100295.25
2023-04-20T23:19:54.122Z,100301.50
2023-04-20T23:22:23.664Z,100292.69
2023-04-20T23:24:53.221Z,100292.63
2023-04-20T23:27:22.791Z,100290.09
2023-04-20T23:29:54.917Z,100297.91
2023-04-20T23:32:24.794Z,100296.16
2023-04-20T23:34:54.318Z,100284.63
2023-04-20T23:37:23.854Z,100287.34
2023-04-20T23:39:53.364Z,100286.47
2023-04-20T23:42:22.939Z,100292.63
2023-04-20T23:44:55.045Z,100285.63
2023-04-20T23:47:24.620Z,100290.00
2023-04-20T23:49:54.213Z,100288.94
2023-04-20T23:52:23.808Z,100287.19
2023-04-20T23:54:53.352Z,100276.56
2023-04-20T23:57:22.915Z,100284.28
2023-04-20T23:59:55.014Z,100275.75
